Time;durP1;ratioP1;P1;durP2;ratioP2;P2;SDS_P1;SDS_P2;PMS_P1;PMS_P2;Temp;Humidity;BMP_temperature;BMP_pressure;BME280_temperature;BME280_humidity;BME280_pressure;Samples;Min_cycle;Max_cycle;Signal;HPM_P1;HPM_P2
2023/11/16 00:00:14;;;;;;;5.20;1.27;;;11.00;99.90;;;;;;5033894;28;20504;-50
2023/11/16 00:02:42;;;;;;;4.57;0.85;;;11.00;99.90;;;;;;5033352;28;20753;-42
2023/11/16 00:05:11;;;;;;;8.00;1.52;;;11.10;99.90;;;;;;5033677;28;20040;-43
2023/11/16 00:07:47;;;;;;;13.43;1.60;;;11.10;99.90;;;;;;5033581;28;20470;-39
2023/11/16 00:10:16;;;;;;;6.07;1.38;;;11.10;99.90;;;;;;5031946;28;20022;-39
2023/11/16 00:12:42;;;;;;;7.72;1.52;;;11.00;99.90;;;;;;5033801;28;20506;-44
2023/11/16 00:15:08;;;;;;;8.00;1.52;;;11.10;99.90;;;;;;5032323;28;20478;-37
2023/11/16 00:17:37;;;;;;;9.13;1.70;;;11.00;99.90;;;;;;5033736;28;20477;-40
2023/11/16 00:20:04;;;;;;;13.35;1.63;;;11.00;99.90;;;;;;5033676;28;20462;-37
2023/11/16 00:22:30;;;;;;;9.50;1.93;;;10.80;99.90;;;;;;5032613;28;20108;-36
2023/11/16 00:24:56;;;;;;;7.70;1.17;;;10.60;99.90;;;;;;5033084;28;20037;-37
2023/11/16 00:27:24;;;;;;;7.28;1.77;;;10.30;99.90;;;;;;5031454;28;20366;-37
2023/11/16 00:29:49;;;;;;;;;;;10.10;99.90;;;;;;5033751;28;20018;-37
2023/11/16 00:32:15;;;;;;;2.55;2.25;;;9.90;99.90;;;;;;5033242;28;20389;-38
2023/11/16 00:34:41;;;;;;;4.25;1.75;;;9.80;99.90;;;;;;5033561;28;20061;-37
2023/11/16 00:37:06;;;;;;;8.10;1.38;;;9.70;99.90;;;;;;5033331;28;20112;-39
2023/11/16 00:39:33;;;;;;;3.38;1.58;;;9.60;99.90;;;;;;5033554;28;20056;-36
2023/11/16 00:41:59;;;;;;;4.53;0.90;;;9.60;99.90;;;;;;5032929;28;20509;-37
2023/11/16 00:44:25;;;;;;;1.52;0.80;;;9.60;99.90;;;;;;5022030;28;20022;-36
2023/11/16 00:46:52;;;;;;;6.50;0.93;;;9.50;99.90;;;;;;5033162;28;20025;-37
2023/11/16 00:49:18;;;;;;;2.03;0.70;;;9.50;99.90;;;;;;5033037;28;20100;-38
2023/11/16 00:51:44;;;;;;;6.10;0.60;;;9.40;99.90;;;;;;5032704;28;20045;-38
2023/11/16 00:54:12;;;;;;;0.55;0.45;;;9.50;99.90;;;;;;5032187;28;20076;-38
2023/11/16 00:56:39;;;;;;;4.63;0.73;;;9.40;99.90;;;;;;5032548;28;20040;-38
2023/11/16 00:59:05;;;;;;;6.38;0.57;;;9.30;99.90;;;;;;5032468;28;20021;-37
2023/11/16 01:01:35;;;;;;;6.68;1.73;;;9.30;99.90;;;;;;5032095;28;20021;-36
2023/11/16 01:04:03;;;;;;;1.05;0.43;;;9.40;99.90;;;;;;5034055;28;20022;-37
2023/11/16 01:06:29;;;;;;;8.57;0.30;;;9.30;99.90;;;;;;5032177;28;20091;-37
2023/11/16 01:08:56;;;;;;;2.42;0.30;;;9.30;99.90;;;;;;5031079;28;20052;-37
2023/11/16 01:11:27;;;;;;;2.05;0.20;;;9.30;99.90;;;;;;5030948;28;20478;-35
2023/11/16 01:13:57;;;;;;;0.45;0.38;;;9.40;99.90;;;;;;5032412;28;20033;-38
2023/11/16 01:16:30;;;;;;;1.92;0.22;;;9.40;99.90;;;;;;5031932;28;20060;-41
2023/11/16 01:19:00;;;;;;;6.50;0.52;;;9.40;99.90;;;;;;5032635;28;20087;-43
2023/11/16 01:21:26;;;;;;;6.38;0.82;;;9.40;99.90;;;;;;5026953;28;20083;-38
2023/11/16 01:23:59;;;;;;;5.53;0.32;;;9.40;99.90;;;;;;5034717;28;20029;-37
2023/11/16 01:26:26;;;;;;;0.50;0.20;;;9.50;99.90;;;;;;5036146;28;20462;-38
2023/11/16 01:29:01;;;;;;;2.03;0.40;;;9.50;99.90;;;;;;5036577;28;20037;-37
2023/11/16 01:31:27;;;;;;;8.80;1.55;;;9.50;99.90;;;;;;5035461;28;20496;-37
2023/11/16 01:33:53;;;;;;;7.10;1.02;;;9.50;99.90;;;;;;5034343;28;20025;-38
2023/11/16 01:36:19;;;;;;;6.05;0.30;;;9.50;99.90;;;;;;5032442;28;20036;-38
2023/11/16 01:38:45;;;;;;;1.67;0.40;;;9.50;99.90;;;;;;5035657;28;20029;-38
2023/11/16 01:41:14;;;;;;;10.00;0.50;;;9.50;99.90;;;;;;5034354;28;20056;-35
2023/11/16 01:43:40;;;;;;;8.73;0.93;;;9.60;99.90;;;;;;5036329;28;20072;-37
2023/11/16 01:46:06;;;;;;;10.30;0.75;;;9.60;99.90;;;;;;5035374;28;20037;-38
2023/11/16 01:48:48;;;;;;;1.40;0.55;;;9.50;99.90;;;;;;5036028;28;20021;-38
2023/11/16 01:51:16;;;;;;;4.85;0.70;;;9.50;99.90;;;;;;5035130;28;20493;-39
2023/11/16 01:53:45;;;;;;;6.05;0.77;;;9.50;99.90;;;;;;5035603;28;20112;-37
2023/11/16 01:56:15;;;;;;;2.25;0.50;;;9.50;99.90;;;;;;5035022;28;20031;-38
2023/11/16 01:58:46;;;;;;;7.85;1.00;;;9.50;99.90;;;;;;5036003;28;20033;-37
2023/11/16 02:01:13;;;;;;;5.38;0.85;;;9.50;99.90;;;;;;5035386;28;20026;-38
2023/11/16 02:03:38;;;;;;;1.65;0.63;;;9.50;99.90;;;;;;5035059;28;20041;-36
2023/11/16 02:06:04;;;;;;;13.15;1.23;;;9.60;99.90;;;;;;5032972;28;20029;-38
2023/11/16 02:08:30;;;;;;;11.50;1.90;;;9.60;99.90;;;;;;5035738;28;20401;-38
2023/11/16 02:10:56;;;;;;;3.88;0.77;;;9.60;99.90;;;;;;5035919;28;20029;-36
2023/11/16 02:13:23;;;;;;;2.42;0.43;;;9.60;99.90;;;;;;5035948;28;20021;-37
2023/11/16 02:15:52;;;;;;;3.30;0.50;;;9.50;99.90;;;;;;5036131;28;20482;-37
2023/11/16 02:18:18;;;;;;;4.57;0.70;;;9.50;99.90;;;;;;5036120;28;20381;-37
2023/11/16 02:20:47;;;;;;;2.67;1.13;;;9.50;99.90;;;;;;5035372;28;20104;-36
2023/11/16 02:23:19;;;;;;;5.80;0.88;;;9.50;99.90;;;;;;5034865;28;20021;-36
2023/11/16 02:25:50;;;;;;;4.38;0.68;;;9.40;99.90;;;;;;5035187;28;20075;-37
2023/11/16 02:28:17;;;;;;;9.63;0.70;;;9.50;99.90;;;;;;5034959;28;20073;-37
2023/11/16 02:30:43;;;;;;;15.53;0.70;;;9.50;99.90;;;;;;5035820;28;20378;-38
2023/11/16 02:33:09;;;;;;;5.75;0.55;;;9.60;99.90;;;;;;5034358;28;20087;-37
2023/11/16 02:35:35;;;;;;;1.85;0.55;;;9.60;99.90;;;;;;5034561;28;20545;-36
2023/11/16 02:38:00;;;;;;;9.73;0.82;;;9.60;99.90;;;;;;5034778;28;20120;-43
2023/11/16 02:40:26;;;;;;;10.00;0.90;;;9.60;99.90;;;;;;5034942;28;20378;-39
2023/11/16 02:42:52;;;;;;;2.58;0.68;;;9.60;99.90;;;;;;5034590;28;20571;-37
2023/11/16 02:45:19;;;;;;;2.35;0.75;;;9.70;99.90;;;;;;5034969;28;20465;-37
2023/11/16 02:47:47;;;;;;;5.63;0.80;;;9.70;99.90;;;;;;5035659;28;20474;-42
2023/11/16 02:50:16;;;;;;;2.63;0.22;;;9.70;99.90;;;;;;5028392;28;20026;-39
2023/11/16 02:52:45;;;;;;;4.30;0.35;;;9.70;99.90;;;;;;5032142;28;20053;-37
2023/11/16 02:55:11;;;;;;;7.75;0.50;;;9.70;99.90;;;;;;5034757;28;20496;-36
2023/11/16 02:57:40;;;;;;;5.07;0.70;;;9.70;99.90;;;;;;5033023;28;20022;-36
2023/11/16 03:00:11;;;;;;;1.55;0.32;;;9.80;99.90;;;;;;5034340;28;20055;-36
2023/11/16 03:02:40;;;;;;;5.07;0.88;;;9.80;99.90;;;;;;5034866;28;20026;-37
2023/11/16 03:05:10;;;;;;;4.18;0.63;;;9.80;99.90;;;;;;5034645;28;20072;-36
2023/11/16 03:07:37;;;;;;;0.90;0.38;;;9.80;99.90;;;;;;5034977;28;20017;-36
2023/11/16 03:10:04;;;;;;;7.03;0.63;;;9.80;99.90;;;;;;5034551;28;20026;-36
2023/11/16 03:12:30;;;;;;;2.05;0.65;;;9.70;99.90;;;;;;5034104;28;20029;-37
2023/11/16 03:14:57;;;;;;;3.60;0.30;;;9.70;99.90;;;;;;5034629;28;20033;-36
2023/11/16 03:17:23;;;;;;;1.58;0.30;;;9.70;99.90;;;;;;5034070;28;20038;-36
2023/11/16 03:19:48;;;;;;;6.53;0.82;;;9.60;99.90;;;;;;5034269;28;20117;-38
2023/11/16 03:22:14;;;;;;;1.00;0.38;;;9.60;99.90;;;;;;5034052;28;20112;-37
2023/11/16 03:24:40;;;;;;;1.35;0.30;;;9.60;99.90;;;;;;5033507;28;20104;-38
2023/11/16 03:27:05;;;;;;;10.10;0.50;;;9.60;99.90;;;;;;5022433;28;20026;-35
2023/11/16 03:29:34;;;;;;;1.52;0.80;;;9.60;99.90;;;;;;5034148;28;20033;-38
2023/11/16 03:31:59;;;;;;;3.15;0.40;;;9.50;99.90;;;;;;5033110;28;20025;-37
2023/11/16 03:34:25;;;;;;;0.65;0.35;;;9.60;99.90;;;;;;5033460;28;20167;-36
2023/11/16 03:36:51;;;;;;;4.10;0.40;;;9.60;99.90;;;;;;5033495;28;20076;-37
2023/11/16 03:39:17;;;;;;;2.13;0.52;;;9.60;99.90;;;;;;5033781;28;20029;-35
2023/11/16 03:41:43;;;;;;;1.27;0.43;;;9.60;99.90;;;;;;5031930;28;20047;-36
2023/11/16 03:44:09;;;;;;;2.05;0.77;;;9.50;99.90;;;;;;5033885;28;20470;-36
2023/11/16 03:46:35;;;;;;;1.60;0.50;;;9.60;99.90;;;;;;5032915;28;20034;-36
2023/11/16 03:49:00;;;;;;;4.85;0.70;;;9.50;99.90;;;;;;5033685;28;20378;-36
2023/11/16 03:51:29;;;;;;;3.92;1.10;;;9.50;99.90;;;;;;5033027;28;20655;-37
2023/11/16 03:53:56;;;;;;;6.03;0.73;;;9.50;99.90;;;;;;5025775;28;20501;-35
2023/11/16 03:56:22;;;;;;;8.83;0.63;;;9.50;99.90;;;;;;5033833;28;20100;-36
2023/11/16 03:58:48;;;;;;;3.70;0.38;;;9.50;99.90;;;;;;5033823;28;20056;-36
2023/11/16 04:01:14;;;;;;;7.90;0.77;;;9.50;99.90;;;;;;5033487;28;20037;-36
2023/11/16 04:03:39;;;;;;;3.78;0.93;;;9.50;99.90;;;;;;5033713;28;20076;-36
2023/11/16 04:06:06;;;;;;;2.80;0.50;;;9.50;99.90;;;;;;5033556;28;20049;-36
2023/11/16 04:08:32;;;;;;;1.58;0.40;;;9.50;99.90;;;;;;5033101;28;20025;-37
2023/11/16 04:10:58;;;;;;;4.32;0.45;;;9.50;99.90;;;;;;5033303;28;20449;-43
2023/11/16 04:13:24;;;;;;;1.55;0.63;;;9.50;99.90;;;;;;5033022;28;20048;-36
2023/11/16 04:15:52;;;;;;;11.82;0.88;;;9.50;99.90;;;;;;5033548;28;20105;-36
2023/11/16 04:18:19;;;;;;;3.42;0.60;;;9.50;99.90;;;;;;5032855;28;20165;-36
2023/11/16 04:20:44;;;;;;;3.72;0.73;;;9.50;99.90;;;;;;5033400;28;20474;-36
2023/11/16 04:23:10;;;;;;;0.85;0.47;;;9.40;99.90;;;;;;5033034;28;20018;-35
2023/11/16 04:25:36;;;;;;;1.17;0.52;;;9.40;99.90;;;;;;5032386;28;20116;-37
2023/11/16 04:28:04;;;;;;;6.10;0.90;;;9.40;99.90;;;;;;5032737;28;20096;-36
2023/11/16 04:30:30;;;;;;;1.30;0.50;;;9.40;99.90;;;;;;5033020;28;20363;-36
2023/11/16 04:32:59;;;;;;;1.35;0.73;;;9.30;99.90;;;;;;5031787;28;20032;-36
2023/11/16 04:35:25;;;;;;;6.70;1.25;;;9.30;99.90;;;;;;5032906;28;20087;-37
2023/11/16 04:37:53;;;;;;;0.73;0.70;;;9.20;99.90;;;;;;5033031;28;20425;-36
2023/11/16 04:40:19;;;;;;;2.35;0.85;;;9.20;99.90;;;;;;5032257;28;20045;-37
2023/11/16 04:42:47;;;;;;;1.88;0.60;;;9.10;99.90;;;;;;5033092;28;20485;-37
2023/11/16 04:45:14;;;;;;;3.72;0.75;;;9.10;99.90;;;;;;5032419;28;20024;-36
2023/11/16 04:47:44;;;;;;;1.37;0.73;;;9.10;99.90;;;;;;5031722;28;20018;-37
2023/11/16 04:50:16;;;;;;;8.10;0.60;;;9.10;99.90;;;;;;5032965;28;20504;-45
2023/11/16 04:52:42;;;;;;;0.52;0.50;;;9.10;99.90;;;;;;5032460;28;20021;-37
2023/11/16 04:55:08;;;;;;;1.98;0.75;;;9.10;99.90;;;;;;5031985;28;20061;-36
2023/11/16 04:57:34;;;;;;;4.25;0.75;;;9.00;99.90;;;;;;5032417;28;20032;-36
2023/11/16 05:00:00;;;;;;;1.95;0.77;;;9.00;99.90;;;;;;5032355;28;20021;-36
2023/11/16 05:02:26;;;;;;;2.72;0.98;;;9.10;99.90;;;;;;5033271;28;20029;-37
2023/11/16 05:04:53;;;;;;;2.10;0.93;;;9.00;99.90;;;;;;5032642;28;20022;-35
2023/11/16 05:07:19;;;;;;;1.98;0.70;;;9.00;99.90;;;;;;5031927;28;20028;-36
2023/11/16 05:09:45;;;;;;;1.52;0.90;;;9.00;99.90;;;;;;5032773;28;20018;-36
2023/11/16 05:12:11;;;;;;;1.38;0.77;;;9.00;99.90;;;;;;5032481;28;20108;-36
2023/11/16 05:14:36;;;;;;;1.15;1.05;;;9.00;99.90;;;;;;5032154;28;20122;-36
2023/11/16 05:17:03;;;;;;;2.42;0.82;;;9.00;99.90;;;;;;5032498;28;20469;-35
2023/11/16 05:19:29;;;;;;;1.30;0.85;;;9.00;99.90;;;;;;5032817;28;20371;-36
2023/11/16 05:21:55;;;;;;;3.30;0.98;;;9.10;99.90;;;;;;5032214;28;20390;-35
2023/11/16 05:24:21;;;;;;;4.15;0.80;;;9.10;99.90;;;;;;5032162;28;20560;-36
2023/11/16 05:26:46;;;;;;;4.72;0.60;;;9.10;99.90;;;;;;5032230;28;20060;-36
2023/11/16 05:29:12;;;;;;;2.63;0.70;;;9.10;99.90;;;;;;5032063;28;20069;-37
2023/11/16 05:31:38;;;;;;;0.75;0.73;;;9.10;99.90;;;;;;5030292;28;20045;-37
2023/11/16 05:34:06;;;;;;;1.65;0.80;;;9.10;99.90;;;;;;5032298;28;20037;-37
2023/11/16 05:36:32;;;;;;;3.30;0.57;;;9.10;99.90;;;;;;5032465;28;20038;-35
2023/11/16 05:39:16;;;;;;;1.45;0.65;;;9.20;99.90;;;;;;5031620;28;20029;-47
2023/11/16 05:41:42;;;;;;;2.22;0.88;;;9.20;99.90;;;;;;5031877;28;20470;-38
2023/11/16 05:44:08;;;;;;;5.03;1.13;;;9.20;99.90;;;;;;5032118;28;20053;-37
2023/11/16 05:46:33;;;;;;;4.45;1.70;;;9.20;99.90;;;;;;5031611;28;20393;-37
2023/11/16 05:48:59;;;;;;;3.75;1.10;;;9.20;99.90;;;;;;5030662;28;20120;-37
2023/11/16 05:51:25;;;;;;;2.35;1.08;;;9.20;99.90;;;;;;5031881;28;20029;-36
2023/11/16 05:53:51;;;;;;;3.78;1.15;;;9.20;99.90;;;;;;5030142;28;20418;-36
2023/11/16 05:56:16;;;;;;;2.08;1.20;;;9.30;99.90;;;;;;5031173;28;20455;-36
2023/11/16 05:58:42;;;;;;;7.53;1.98;;;9.30;99.90;;;;;;5030796;28;20410;-36
2023/11/16 06:01:13;;;;;;;4.70;1.27;;;9.30;99.90;;;;;;5031374;28;20432;-36
2023/11/16 06:03:39;;;;;;;4.40;1.15;;;9.30;99.90;;;;;;5030963;28;20021;-37
2023/11/16 06:06:05;;;;;;;5.50;1.75;;;9.40;99.90;;;;;;5031912;28;20508;-51
2023/11/16 06:08:31;;;;;;;1.90;1.42;;;9.40;99.90;;;;;;5031534;28;20017;-54
2023/11/16 06:10:57;;;;;;;4.45;1.83;;;9.40;99.90;;;;;;5034105;28;20039;-50
2023/11/16 06:13:23;;;;;;;3.72;1.38;;;9.40;99.90;;;;;;5036031;28;20029;-52
2023/11/16 06:15:49;;;;;;;6.75;1.55;;;9.40;99.90;;;;;;5034093;28;20485;-50
2023/11/16 06:18:16;;;;;;;1.52;1.23;;;9.40;99.90;;;;;;5034938;28;20064;-52
2023/11/16 06:20:43;;;;;;;8.43;2.00;;;9.50;99.90;;;;;;5036028;28;20473;-50
2023/11/16 06:23:08;;;;;;;2.42;1.70;;;9.50;99.90;;;;;;5035462;28;20394;-51
2023/11/16 06:25:34;;;;;;;2.63;1.55;;;9.50;99.90;;;;;;5034098;28;20021;-54
2023/11/16 06:28:00;;;;;;;4.15;2.30;;;9.50;99.90;;;;;;5035299;28;20528;-51
2023/11/16 06:30:25;;;;;;;1.75;1.48;;;9.50;99.90;;;;;;5035037;28;20071;-51
2023/11/16 06:32:51;;;;;;;4.72;2.25;;;9.50;99.90;;;;;;5035179;28;20025;-52
2023/11/16 06:35:17;;;;;;;9.32;2.00;;;9.50;99.90;;;;;;5034835;28;20025;-53
2023/11/16 06:37:43;;;;;;;5.05;2.40;;;9.50;99.90;;;;;;5035460;28;20580;-50
2023/11/16 06:40:09;;;;;;;2.03;1.83;;;9.50;99.90;;;;;;5034616;28;20438;-50
2023/11/16 06:42:36;;;;;;;3.10;1.73;;;9.50;99.90;;;;;;5034569;28;20504;-50
2023/11/16 06:45:06;;;;;;;3.22;2.03;;;9.50;99.90;;;;;;5033653;28;20029;-52
2023/11/16 06:47:33;;;;;;;5.50;1.95;;;9.50;99.90;;;;;;5035170;28;20022;-52
2023/11/16 06:50:00;;;;;;;2.47;1.77;;;9.50;99.90;;;;;;5034325;28;20022;-51
2023/11/16 06:52:27;;;;;;;1.83;1.52;;;9.50;99.90;;;;;;5034900;28;20033;-51
2023/11/16 06:54:55;;;;;;;10.80;2.20;;;9.50;99.90;;;;;;5034718;28;20030;-49
2023/11/16 06:57:27;;;;;;;5.63;2.15;;;9.50;99.90;;;;;;5033105;28;20116;-49
2023/11/16 06:59:54;;;;;;;5.68;2.30;;;9.50;99.90;;;;;;5034697;28;20044;-49
2023/11/16 07:02:21;;;;;;;6.35;2.35;;;9.50;99.90;;;;;;5034503;28;20030;-52
2023/11/16 07:04:47;;;;;;;3.53;2.35;;;9.50;99.90;;;;;;5034644;28;20026;-52
2023/11/16 07:07:13;;;;;;;5.88;3.22;;;9.50;99.90;;;;;;5034230;28;20022;-50
2023/11/16 07:09:44;;;;;;;3.95;2.47;;;9.50;99.90;;;;;;5034430;28;20378;-52
2023/11/16 07:12:10;;;;;;;5.13;2.92;;;9.50;99.90;;;;;;5033227;28;20029;-50
2023/11/16 07:14:36;;;;;;;4.40;2.05;;;9.50;99.90;;;;;;5034118;28;20051;-50
2023/11/16 07:17:02;;;;;;;4.28;2.53;;;9.50;99.90;;;;;;5033889;28;20443;-52
2023/11/16 07:19:28;;;;;;;5.55;3.05;;;9.50;99.90;;;;;;5034363;28;20057;-52
2023/11/16 07:21:54;;;;;;;4.25;2.25;;;9.40;99.90;;;;;;5033169;28;20485;-52
2023/11/16 07:24:20;;;;;;;5.95;2.42;;;9.40;99.90;;;;;;5034270;28;20034;-50
2023/11/16 07:26:47;;;;;;;4.13;2.80;;;9.30;99.90;;;;;;5034036;28;20432;-54
2023/11/16 07:29:12;;;;;;;8.07;3.08;;;9.30;99.90;;;;;;5019496;28;20045;-51
2023/11/16 07:31:40;;;;;;;6.00;3.47;;;9.30;99.90;;;;;;5034090;28;20095;-49
2023/11/16 07:34:06;;;;;;;;;;;9.30;99.90;;;;;;5033963;28;20079;-48
2023/11/16 07:36:32;;;;;;;4.82;2.42;;;9.30;99.90;;;;;;5041217;28;20336;-52
2023/11/16 07:38:58;;;;;;;4.57;2.80;;;9.40;99.90;;;;;;5033775;28;20052;-48
2023/11/16 07:41:30;;;;;;;4.03;2.50;;;9.40;99.90;;;;;;5036189;28;20435;-49
2023/11/16 07:43:57;;;;;;;4.10;2.70;;;9.50;99.90;;;;;;5034018;28;20053;-51
2023/11/16 07:46:23;;;;;;;6.40;3.28;;;9.50;99.90;;;;;;5032005;28;20478;-53
2023/11/16 07:48:49;;;;;;;7.40;3.05;;;9.60;99.90;;;;;;5033718;28;20032;-52
2023/11/16 07:51:15;;;;;;;4.55;3.22;;;9.60;99.90;;;;;;5034022;28;20478;-54
2023/11/16 07:53:47;;;;;;;8.13;3.83;;;9.70;99.90;;;;;;5033306;28;20529;-52
2023/11/16 07:56:17;;;;;;;9.82;4.30;;;9.70;99.90;;;;;;5033483;28;20030;-53
2023/11/16 07:58:48;;;;;;;12.15;4.95;;;9.80;99.90;;;;;;5033231;28;20418;-54
2023/11/16 08:01:16;;;;;;;5.38;3.45;;;9.80;99.90;;;;;;5033429;28;20025;-51
2023/11/16 08:03:42;;;;;;;7.10;3.40;;;9.70;99.90;;;;;;5032500;28;20088;-53
2023/11/16 08:06:15;;;;;;;7.05;4.10;;;9.70;99.90;;;;;;5031803;28;20033;-52
2023/11/16 08:08:45;;;;;;;9.95;4.63;;;9.80;99.90;;;;;;5025555;28;20030;-55
2023/11/16 08:11:12;;;;;;;7.95;4.40;;;9.80;99.90;;;;;;5033106;28;20022;-50
2023/11/16 08:13:42;;;;;;;22.23;5.40;;;9.80;99.90;;;;;;5014924;28;20482;-52
2023/11/16 08:16:15;;;;;;;11.88;5.40;;;9.90;99.90;;;;;;5033203;28;20071;-49
2023/11/16 08:18:42;;;;;;;9.18;5.30;;;10.00;99.90;;;;;;5033511;28;20047;-52
2023/11/16 08:21:09;;;;;;;11.15;5.45;;;9.90;99.90;;;;;;5029885;28;20485;-52
2023/11/16 08:23:39;;;;;;;11.57;5.45;;;9.90;99.90;;;;;;5033341;28;20029;-49
2023/11/16 08:26:06;;;;;;;8.00;5.13;;;9.80;99.90;;;;;;5032768;28;20505;-51
2023/11/16 08:28:32;;;;;;;11.70;5.47;;;9.80;99.90;;;;;;5032851;28;20033;-51
2023/11/16 08:30:58;;;;;;;15.80;6.05;;;9.70;99.90;;;;;;5031988;28;20167;-53
2023/11/16 08:33:25;;;;;;;18.38;6.05;;;9.70;99.90;;;;;;5030556;28;20163;-53
2023/11/16 08:35:53;;;;;;;9.73;5.30;;;9.80;99.90;;;;;;5015216;28;20093;-53
2023/11/16 08:38:19;;;;;;;11.32;5.53;;;9.80;99.90;;;;;;5032738;28;20746;-53
2023/11/16 08:40:45;;;;;;;15.18;6.13;;;9.80;99.90;;;;;;5032391;28;20493;-51
2023/11/16 08:43:11;;;;;;;10.02;5.47;;;9.80;99.90;;;;;;5033112;28;20032;-51
2023/11/16 08:45:39;;;;;;;18.25;6.45;;;9.80;99.90;;;;;;5032377;28;20108;-53
2023/11/16 08:48:07;;;;;;;;;;;9.80;99.90;;;;;;5033057;28;20068;-50
2023/11/16 08:50:37;;;;;;;11.30;4.90;;;9.80;99.90;;;;;;5033297;28;20369;-52
2023/11/16 08:53:07;;;;;;;13.05;6.18;;;9.90;99.90;;;;;;5032203;28;20029;-49
2023/11/16 08:55:33;;;;;;;12.52;6.93;;;9.90;99.90;;;;;;5035162;28;20021;-52
2023/11/16 08:58:02;;;;;;;13.50;5.55;;;9.90;99.90;;;;;;5032995;28;20029;-53
2023/11/16 09:00:28;;;;;;;11.00;5.35;;;9.90;99.90;;;;;;5033373;28;20457;-48
2023/11/16 09:02:57;;;;;;;17.10;6.32;;;9.90;99.90;;;;;;5034496;28;20049;-53
2023/11/16 09:05:24;;;;;;;21.13;5.45;;;10.00;99.90;;;;;;5031837;28;20521;-52
2023/11/16 09:07:53;;;;;;;11.45;5.72;;;10.00;99.90;;;;;;5031512;28;20526;-50
2023/11/16 09:10:21;;;;;;;17.17;7.00;;;10.00;99.90;;;;;;5030694;28;20534;-51
2023/11/16 09:12:48;;;;;;;13.13;6.32;;;9.90;99.90;;;;;;5026421;28;20113;-45
2023/11/16 09:15:16;;;;;;;17.58;6.22;;;9.90;99.90;;;;;;5030009;28;20033;-51
2023/11/16 09:17:45;;;;;;;14.18;6.25;;;9.90;99.90;;;;;;5018778;28;20030;-49
2023/11/16 09:20:18;;;;;;;15.77;6.90;;;9.90;99.90;;;;;;5031875;28;20478;-50
2023/11/16 09:22:44;;;;;;;14.18;6.63;;;10.00;99.90;;;;;;5032689;28;20505;-53
2023/11/16 09:25:19;;;;;;;10.00;5.47;;;10.00;99.90;;;;;;5031757;28;20030;-52
2023/11/16 09:27:50;;;;;;;18.17;6.38;;;10.00;99.90;;;;;;5031798;28;20032;-53
2023/11/16 09:30:22;;;;;;;15.75;6.38;;;10.00;99.90;;;;;;5030694;28;20096;-53
2023/11/16 09:32:50;;;;;;;11.25;5.07;;;10.00;99.90;;;;;;5032838;28;20056;-53
2023/11/16 09:35:21;;;;;;;13.52;6.13;;;10.10;99.90;;;;;;5031673;28;20573;-52
2023/11/16 09:37:48;;;;;;;12.82;5.70;;;10.10;99.90;;;;;;5030883;28;20056;-52
2023/11/16 09:40:21;;;;;;;19.15;6.00;;;10.10;99.90;;;;;;5034838;28;20467;-51
2023/11/16 09:42:48;;;;;;;10.90;4.97;;;10.10;99.90;;;;;;5032182;28;20040;-50
2023/11/16 09:45:20;;;;;;;18.50;6.72;;;10.10;99.90;;;;;;5033391;28;20478;-51
2023/11/16 09:47:53;;;;;;;12.80;5.95;;;10.20;99.90;;;;;;5036386;28;20022;-52
2023/11/16 09:50:21;;;;;;;12.05;4.85;;;10.20;99.90;;;;;;5035965;28;20040;-51
2023/11/16 09:52:48;;;;;;;19.20;6.55;;;10.20;99.90;;;;;;5035946;28;20033;-50
2023/11/16 09:55:17;;;;;;;14.35;6.13;;;10.30;99.90;;;;;;5036015;28;20022;-47
2023/11/16 09:57:45;;;;;;;11.48;5.88;;;10.20;99.90;;;;;;5035797;28;20541;-52
2023/11/16 10:00:15;;;;;;;12.50;5.80;;;10.20;99.90;;;;;;5036101;28;20033;-52
2023/11/16 10:02:46;;;;;;;23.73;5.97;;;10.30;99.90;;;;;;5035413;28;20037;-51
2023/11/16 10:05:23;;;;;;;8.57;4.72;;;10.30;99.90;;;;;;5035483;28;20025;-52
2023/11/16 10:07:53;;;;;;;16.52;5.20;;;10.30;99.90;;;;;;5036101;28;20030;-51
2023/11/16 10:10:20;;;;;;;17.13;5.00;;;10.30;99.90;;;;;;5036045;28;20104;-50
2023/11/16 10:12:50;;;;;;;12.32;5.63;;;10.30;99.90;;;;;;5035400;28;20079;-52
2023/11/16 10:15:20;;;;;;;15.00;5.82;;;10.30;99.90;;;;;;5036071;28;20065;-52
2023/11/16 10:17:52;;;;;;;14.75;5.15;;;10.30;99.90;;;;;;5034022;28;20025;-51
2023/11/16 10:20:20;;;;;;;20.70;5.80;;;10.30;99.90;;;;;;5036141;28;20150;-53
2023/11/16 10:22:47;;;;;;;14.63;5.38;;;10.30;99.90;;;;;;5046368;28;20057;-50
2023/11/16 10:25:14;;;;;;;12.35;5.03;;;10.20;99.90;;;;;;5035461;28;20478;-52
2023/11/16 10:27:43;;;;;;;10.25;4.78;;;10.20;99.90;;;;;;5035715;28;20425;-51
2023/11/16 10:30:15;;;;;;;15.57;5.80;;;10.30;99.90;;;;;;5034987;28;20021;-53
2023/11/16 10:32:46;;;;;;;19.40;5.53;;;10.30;99.90;;;;;;5027194;28;20080;-52
2023/11/16 10:35:14;;;;;;;14.30;5.32;;;10.40;99.90;;;;;;5030654;28;20387;-36
2023/11/16 10:37:44;;;;;;;12.05;5.18;;;10.40;99.90;;;;;;5027849;28;20028;-36
2023/11/16 10:40:11;;;;;;;14.90;4.88;;;10.40;99.90;;;;;;5034773;28;20021;-36
2023/11/16 10:42:44;;;;;;;8.10;4.95;;;10.40;99.90;;;;;;5034112;28;20045;-37
2023/11/16 10:45:14;;;;;;;11.45;4.75;;;10.40;99.90;;;;;;5032347;28;20507;-37
2023/11/16 10:47:44;;;;;;;9.20;4.90;;;10.40;99.90;;;;;;5030409;28;20030;-36
2023/11/16 10:50:17;;;;;;;13.10;5.32;;;10.40;99.90;;;;;;5036246;28;20402;-39
2023/11/16 10:52:45;;;;;;;14.38;7.30;;;10.40;99.90;;;;;;5035124;28;20110;-37
2023/11/16 10:55:16;;;;;;;;;;;10.40;99.90;;;;;;5034775;28;20036;-37
2023/11/16 10:57:47;;;;;;;13.60;7.70;;;10.30;99.90;;;;;;5034604;28;19909;-38
2023/11/16 11:00:16;;;;;;;12.65;5.10;;;10.30;99.90;;;;;;5034491;28;20034;-40
2023/11/16 11:02:49;;;;;;;10.05;4.75;;;10.40;99.90;;;;;;5033990;28;20029;-37
2023/11/16 11:05:21;;;;;;;6.43;3.90;;;10.30;99.90;;;;;;5034705;28;20096;-38
2023/11/16 11:07:53;;;;;;;11.90;5.13;;;10.30;99.90;;;;;;5034680;28;20390;-36
2023/11/16 11:10:27;;;;;;;9.65;4.65;;;10.30;99.90;;;;;;5034803;28;20030;-37
2023/11/16 11:12:55;;;;;;;24.13;5.30;;;10.30;99.90;;;;;;5034958;28;20385;-37
2023/11/16 11:15:31;;;;;;;16.52;4.68;;;10.30;99.90;;;;;;5025432;28;20536;-39
2023/11/16 11:17:58;;;;;;;17.23;4.15;;;10.30;99.90;;;;;;5034892;28;20111;-38
2023/11/16 11:20:39;;;;;;;10.65;4.35;;;10.30;99.90;;;;;;5034751;28;20029;-36
2023/11/16 11:23:07;;;;;;;15.30;4.75;;;10.20;99.90;;;;;;5029214;28;20041;-38
2023/11/16 11:25:37;;;;;;;10.18;4.28;;;10.20;99.90;;;;;;5032308;28;20087;-36
2023/11/16 11:28:04;;;;;;;9.75;4.70;;;10.20;99.90;;;;;;5030737;28;20063;-38
2023/11/16 11:30:35;;;;;;;12.85;4.93;;;10.10;99.90;;;;;;5030752;28;20021;-39
2023/11/16 11:33:06;;;;;;;15.45;4.95;;;10.20;99.90;;;;;;5029946;28;20378;-38
2023/11/16 11:35:37;;;;;;;11.73;4.00;;;10.20;99.90;;;;;;5028288;28;20052;-36
2023/11/16 11:38:16;;;;;;;10.40;3.75;;;10.20;99.90;;;;;;5026173;28;20030;-38
2023/11/16 11:41:11;;;;;;;8.63;4.45;;;10.20;99.90;;;;;;5030984;28;20509;-37
2023/11/16 11:43:41;;;;;;;8.43;4.13;;;10.20;99.90;;;;;;5014521;28;20037;-38
2023/11/16 11:46:08;;;;;;;12.80;4.63;;;10.20;99.90;;;;;;5028004;28;20075;-39
2023/11/16 11:48:35;;;;;;;21.70;4.50;;;10.20;99.90;;;;;;5033425;28;20497;-38
2023/11/16 11:51:04;;;;;;;10.48;3.88;;;10.20;99.90;;;;;;5032508;28;20017;-38
2023/11/16 11:53:32;;;;;;;11.00;4.53;;;10.20;99.90;;;;;;5033321;28;20481;-38
2023/11/16 11:56:00;;;;;;;7.93;4.30;;;10.20;99.90;;;;;;5025622;28;20049;-37
2023/11/16 11:58:26;;;;;;;10.05;4.40;;;10.10;99.90;;;;;;5020977;28;21551;-39
2023/11/16 12:00:53;;;;;;;8.90;4.50;;;10.10;99.90;;;;;;5024796;28;20109;-38
2023/11/16 12:03:20;;;;;;;11.45;4.68;;;10.10;99.90;;;;;;5025194;28;20067;-37
2023/11/16 12:06:00;;;;;;;16.65;5.40;;;10.10;99.90;;;;;;5027086;28;20033;-38
2023/11/16 12:08:41;;;;;;;12.65;5.13;;;10.00;99.90;;;;;;5025611;28;20018;-40
2023/11/16 12:11:10;;;;;;;9.07;4.57;;;10.10;99.90;;;;;;5024565;28;20486;-42
2023/11/16 12:13:38;;;;;;;13.65;4.22;;;10.00;99.90;;;;;;5023509;28;20305;-38
2023/11/16 12:16:07;;;;;;;11.85;4.72;;;10.00;99.90;;;;;;5026722;28;20494;-36
2023/11/16 12:18:48;;;;;;;8.70;4.00;;;10.00;99.90;;;;;;5025482;28;20028;-41
2023/11/16 12:21:20;;;;;;;15.50;4.75;;;10.00;99.90;;;;;;5025207;28;20494;-40
2023/11/16 12:23:51;;;;;;;12.35;5.03;;;10.00;99.90;;;;;;5055599;28;20444;-39
2023/11/16 12:26:28;;;;;;;13.68;4.63;;;10.00;99.90;;;;;;5029754;28;20021;-40
2023/11/16 12:28:57;;;;;;;12.70;4.45;;;9.90;99.90;;;;;;5033710;28;20072;-39
2023/11/16 12:31:26;;;;;;;6.93;3.65;;;9.80;99.90;;;;;;5032128;28;20026;-38
2023/11/16 12:33:55;;;;;;;11.98;4.55;;;9.90;99.90;;;;;;5029120;28;20029;-38
2023/11/16 12:36:23;;;;;;;12.25;3.45;;;9.80;99.90;;;;;;5026374;28;20033;-40
2023/11/16 12:38:49;;;;;;;11.57;4.43;;;9.80;99.90;;;;;;5028188;28;20083;-38
2023/11/16 12:41:16;;;;;;;5.95;4.25;;;9.80;99.90;;;;;;5032947;28;20053;-40
2023/11/16 12:43:42;;;;;;;15.15;4.38;;;9.80;99.90;;;;;;5033163;28;20061;-38
2023/11/16 12:46:11;;;;;;;9.25;4.15;;;9.80;99.90;;;;;;5033154;28;20029;-38
2023/11/16 12:48:37;;;;;;;8.65;3.33;;;9.70;99.90;;;;;;5033386;28;20037;-42
2023/11/16 12:51:03;;;;;;;7.32;3.40;;;9.70;99.90;;;;;;5033096;28;20474;-39
2023/11/16 12:53:29;;;;;;;5.20;3.15;;;9.70;99.90;;;;;;5032860;28;20033;-43
2023/11/16 12:55:57;;;;;;;9.25;3.58;;;9.80;99.90;;;;;;5032795;28;20117;-38